sensor_id;sensor_type;location;lat;lon;timestamp;temperature;humidity
8643;DHT22;4359;49.358;11.256;2023-04-15T00:00:24;3.30;99.90
8643;DHT22;4359;49.358;11.256;2023-04-15T00:02:50;3.30;99.90
8643;DHT22;4359;49.358;11.256;2023-04-15T00:05:15;3.30;99.90
8643;DHT22;4359;49.358;11.256;2023-04-15T00:07:41;3.30;99.90
8643;DHT22;4359;49.358;11.256;2023-04-15T00:10:07;3.30;99.90
8643;DHT22;4359;49.358;11.256;2023-04-15T00:12:33;3.30;99.90
8643;DHT22;4359;49.358;11.256;2023-04-15T00:14:59;3.30;99.90
8643;DHT22;4359;49.358;11.256;2023-04-15T00:17:24;3.20;99.90
8643;DHT22;4359;49.358;11.256;2023-04-15T00:19:50;3.30;99.90
8643;DHT22;4359;49.358;11.256;2023-04-15T00:22:15;3.30;99.90
8643;DHT22;4359;49.358;11.256;2023-04-15T00:24:42;3.30;99.90
8643;DHT22;4359;49.358;11.256;2023-04-15T00:27:08;3.30;99.90
8643;DHT22;4359;49.358;11.256;2023-04-15T00:29:33;3.30;99.90
8643;DHT22;4359;49.358;11.256;2023-04-15T00:32:00;3.20;99.90
8643;DHT22;4359;49.358;11.256;2023-04-15T00:34:25;3.20;99.90
8643;DHT22;4359;49.358;11.256;2023-04-15T00:36:52;3.20;99.90
8643;DHT22;4359;49.358;11.256;2023-04-15T00:39:18;3.20;99.90
8643;DHT22;4359;49.358;11.256;2023-04-15T00:41:44;3.20;99.90
8643;DHT22;4359;49.358;11.256;2023-04-15T00:44:10;3.20;99.90
8643;DHT22;4359;49.358;11.256;2023-04-15T00:46:36;3.20;99.90
8643;DHT22;4359;49.358;11.256;2023-04-15T00:49:06;3.20;99.90
8643;DHT22;4359;49.358;11.256;2023-04-15T00:51:32;3.20;99.90
8643;DHT22;4359;49.358;11.256;2023-04-15T00:54:04;3.20;99.90
8643;DHT22;4359;49.358;11.256;2023-04-15T00:56:30;3.30;99.90
8643;DHT22;4359;49.358;11.256;2023-04-15T00:58:59;3.20;99.90
8643;DHT22;4359;49.358;11.256;2023-04-15T01:01:27;3.20;99.90
8643;DHT22;4359;49.358;11.256;2023-04-15T01:03:55;3.10;99.90
8643;DHT22;4359;49.358;11.256;2023-04-15T01:06:23;3.10;99.90
8643;DHT22;4359;49.358;11.256;2023-04-15T01:08:48;3.10;99.90
8643;DHT22;4359;49.358;11.256;2023-04-15T01:11:14;3.10;99.90
8643;DHT22;4359;49.358;11.256;2023-04-15T01:13:41;3.10;99.90
8643;DHT22;4359;49.358;11.256;2023-04-15T01:16:07;3.10;99.90
8643;DHT22;4359;49.358;11.256;2023-04-15T01:18:34;3.20;99.90
8643;DHT22;4359;49.358;11.256;2023-04-15T01:21:00;3.10;99.90
8643;DHT22;4359;49.358;11.256;2023-04-15T01:23:29;3.10;99.90
8643;DHT22;4359;49.358;11.256;2023-04-15T01:25:55;3.10;99.90
8643;DHT22;4359;49.358;11.256;2023-04-15T01:28:21;3.20;99.90
8643;DHT22;4359;49.358;11.256;2023-04-15T01:30:47;3.20;99.90
8643;DHT22;4359;49.358;11.256;2023-04-15T01:35:40;3.20;99.90
8643;DHT22;4359;49.358;11.256;2023-04-15T01:38:09;3.20;99.90
8643;DHT22;4359;49.358;11.256;2023-04-15T01:40:35;3.20;99.90
8643;DHT22;4359;49.358;11.256;2023-04-15T01:43:01;3.20;99.90
8643;DHT22;4359;49.358;11.256;2023-04-15T01:45:28;3.10;99.90
8643;DHT22;4359;49.358;11.256;2023-04-15T01:47:54;3.10;99.90
8643;DHT22;4359;49.358;11.256;2023-04-15T01:50:20;3.10;99.90
8643;DHT22;4359;49.358;11.256;2023-04-15T01:52:46;3.10;99.90
8643;DHT22;4359;49.358;11.256;2023-04-15T01:55:13;3.20;99.90
8643;DHT22;4359;49.358;11.256;2023-04-15T01:57:39;3.10;99.90
8643;DHT22;4359;49.358;11.256;2023-04-15T02:00:06;3.20;99.90
8643;DHT22;4359;49.358;11.256;2023-04-15T02:02:34;3.20;99.90
8643;DHT22;4359;49.358;11.256;2023-04-15T02:05:00;3.20;99.90
8643;DHT22;4359;49.358;11.256;2023-04-15T02:07:26;3.20;99.90
8643;DHT22;4359;49.358;11.256;2023-04-15T02:09:53;3.20;99.90
8643;DHT22;4359;49.358;11.256;2023-04-15T02:12:18;3.30;99.90
8643;DHT22;4359;49.358;11.256;2023-04-15T02:14:44;3.30;99.90
8643;DHT22;4359;49.358;11.256;2023-04-15T02:17:10;3.30;99.90
8643;DHT22;4359;49.358;11.256;2023-04-15T02:19:35;3.40;99.90
8643;DHT22;4359;49.358;11.256;2023-04-15T02:22:01;3.40;99.90
8643;DHT22;4359;49.358;11.256;2023-04-15T02:24:28;3.40;99.90
8643;DHT22;4359;49.358;11.256;2023-04-15T02:26:54;3.40;99.90
8643;DHT22;4359;49.358;11.256;2023-04-15T02:29:20;3.40;99.90
8643;DHT22;4359;49.358;11.256;2023-04-15T02:31:47;3.40;99.90
8643;DHT22;4359;49.358;11.256;2023-04-15T02:34:12;3.40;99.90
8643;DHT22;4359;49.358;11.256;2023-04-15T02:36:38;3.50;99.90
8643;DHT22;4359;49.358;11.256;2023-04-15T02:39:05;3.40;99.90
8643;DHT22;4359;49.358;11.256;2023-04-15T02:41:30;3.50;99.90
8643;DHT22;4359;49.358;11.256;2023-04-15T02:43:56;3.50;99.90
8643;DHT22;4359;49.358;11.256;2023-04-15T02:46:22;3.40;99.90
8643;DHT22;4359;49.358;11.256;2023-04-15T02:48:50;3.50;99.90
8643;DHT22;4359;49.358;11.256;2023-04-15T02:51:19;3.40;99.90
8643;DHT22;4359;49.358;11.256;2023-04-15T02:53:46;3.40;99.90
8643;DHT22;4359;49.358;11.256;2023-04-15T02:56:11;3.40;99.90
8643;DHT22;4359;49.358;11.256;2023-04-15T02:58:39;3.50;99.90
8643;DHT22;4359;49.358;11.256;2023-04-15T03:01:05;3.40;99.90
8643;DHT22;4359;49.358;11.256;2023-04-15T03:03:32;3.50;99.90
8643;DHT22;4359;49.358;11.256;2023-04-15T03:05:57;3.50;99.90
8643;DHT22;4359;49.358;11.256;2023-04-15T03:08:23;3.50;99.90
8643;DHT22;4359;49.358;11.256;2023-04-15T03:10:48;3.50;99.90
8643;DHT22;4359;49.358;11.256;2023-04-15T03:13:16;3.50;99.90
8643;DHT22;4359;49.358;11.256;2023-04-15T03:15:42;3.50;99.90
8643;DHT22;4359;49.358;11.256;2023-04-15T03:18:08;3.50;99.90
8643;DHT22;4359;49.358;11.256;2023-04-15T03:20:33;3.50;99.90
8643;DHT22;4359;49.358;11.256;2023-04-15T03:23:00;3.50;99.90
8643;DHT22;4359;49.358;11.256;2023-04-15T03:25:25;3.50;99.90
8643;DHT22;4359;49.358;11.256;2023-04-15T03:27:51;3.40;99.90
8643;DHT22;4359;49.358;11.256;2023-04-15T03:30:17;3.40;99.90
8643;DHT22;4359;49.358;11.256;2023-04-15T03:32:42;3.40;99.90
8643;DHT22;4359;49.358;11.256;2023-04-15T03:35:08;3.50;99.90
8643;DHT22;4359;49.358;11.256;2023-04-15T03:37:34;3.50;99.90
8643;DHT22;4359;49.358;11.256;2023-04-15T03:39:59;3.50;99.90
8643;DHT22;4359;49.358;11.256;2023-04-15T03:42:25;3.50;99.90
8643;DHT22;4359;49.358;11.256;2023-04-15T03:44:51;3.50;99.90
8643;DHT22;4359;49.358;11.256;2023-04-15T03:47:17;3.40;99.90
8643;DHT22;4359;49.358;11.256;2023-04-15T03:49:42;3.40;99.90
8643;DHT22;4359;49.358;11.256;2023-04-15T03:52:08;3.50;99.90
8643;DHT22;4359;49.358;11.256;2023-04-15T03:54:33;3.60;99.90
8643;DHT22;4359;49.358;11.256;2023-04-15T03:56:59;3.70;99.90
8643;DHT22;4359;49.358;11.256;2023-04-15T03:59:26;3.70;99.90
8643;DHT22;4359;49.358;11.256;2023-04-15T04:01:51;3.80;99.90
8643;DHT22;4359;49.358;11.256;2023-04-15T04:04:17;3.80;99.90
8643;DHT22;4359;49.358;11.256;2023-04-15T04:06:42;3.70;99.90
8643;DHT22;4359;49.358;11.256;2023-04-15T04:09:08;3.70;99.90
8643;DHT22;4359;49.358;11.256;2023-04-15T04:11:34;3.70;99.90
8643;DHT22;4359;49.358;11.256;2023-04-15T04:13:59;3.70;99.90
8643;DHT22;4359;49.358;11.256;2023-04-15T04:16:25;3.70;99.90
8643;DHT22;4359;49.358;11.256;2023-04-15T04:18:51;3.70;99.90
8643;DHT22;4359;49.358;11.256;2023-04-15T04:21:16;3.60;99.90
8643;DHT22;4359;49.358;11.256;2023-04-15T04:23:42;3.60;99.90
8643;DHT22;4359;49.358;11.256;2023-04-15T04:26:08;3.60;99.90
8643;DHT22;4359;49.358;11.256;2023-04-15T04:28:33;3.60;99.90
8643;DHT22;4359;49.358;11.256;2023-04-15T04:31:00;3.50;99.90
8643;DHT22;4359;49.358;11.256;2023-04-15T04:33:26;3.50;99.90
8643;DHT22;4359;49.358;11.256;2023-04-15T04:35:52;3.60;99.90
8643;DHT22;4359;49.358;11.256;2023-04-15T04:38:17;3.60;99.90
8643;DHT22;4359;49.358;11.256;2023-04-15T04:40:43;3.60;99.90
8643;DHT22;4359;49.358;11.256;2023-04-15T04:43:08;3.60;99.90
8643;DHT22;4359;49.358;11.256;2023-04-15T04:45:34;3.60;99.90
8643;DHT22;4359;49.358;11.256;2023-04-15T04:48:00;3.60;99.90
8643;DHT22;4359;49.358;11.256;2023-04-15T04:50:26;3.60;99.90
8643;DHT22;4359;49.358;11.256;2023-04-15T04:52:51;3.70;99.90
8643;DHT22;4359;49.358;11.256;2023-04-15T04:55:17;3.70;99.90
8643;DHT22;4359;49.358;11.256;2023-04-15T04:57:43;3.70;99.90
8643;DHT22;4359;49.358;11.256;2023-04-15T05:00:09;3.70;99.90
8643;DHT22;4359;49.358;11.256;2023-04-15T05:02:34;3.80;99.90
8643;DHT22;4359;49.358;11.256;2023-04-15T05:05:00;3.80;99.90
8643;DHT22;4359;49.358;11.256;2023-04-15T05:07:26;3.80;99.90
8643;DHT22;4359;49.358;11.256;2023-04-15T05:09:51;3.90;99.90
8643;DHT22;4359;49.358;11.256;2023-04-15T05:12:17;3.90;99.90
8643;DHT22;4359;49.358;11.256;2023-04-15T05:14:43;4.00;99.90
8643;DHT22;4359;49.358;11.256;2023-04-15T05:17:08;4.10;99.90
8643;DHT22;4359;49.358;11.256;2023-04-15T05:19:35;4.20;99.90
8643;DHT22;4359;49.358;11.256;2023-04-15T05:22:01;4.20;99.90
8643;DHT22;4359;49.358;11.256;2023-04-15T05:24:26;4.20;99.90
8643;DHT22;4359;49.358;11.256;2023-04-15T05:26:53;4.20;99.90
8643;DHT22;4359;49.358;11.256;2023-04-15T05:29:19;4.20;99.90
8643;DHT22;4359;49.358;11.256;2023-04-15T05:31:44;4.30;99.90
8643;DHT22;4359;49.358;11.256;2023-04-15T05:34:10;4.40;99.90
8643;DHT22;4359;49.358;11.256;2023-04-15T05:36:37;4.50;99.90
8643;DHT22;4359;49.358;11.256;2023-04-15T05:39:02;4.50;99.90
8643;DHT22;4359;49.358;11.256;2023-04-15T05:41:28;4.50;99.90
8643;DHT22;4359;49.358;11.256;2023-04-15T05:43:54;4.50;99.90
8643;DHT22;4359;49.358;11.256;2023-04-15T05:46:20;4.50;99.90
8643;DHT22;4359;49.358;11.256;2023-04-15T05:48:45;4.50;99.90
8643;DHT22;4359;49.358;11.256;2023-04-15T05:51:11;4.50;99.90
8643;DHT22;4359;49.358;11.256;2023-04-15T05:53:37;4.50;99.90
8643;DHT22;4359;49.358;11.256;2023-04-15T05:56:02;4.50;99.90
8643;DHT22;4359;49.358;11.256;2023-04-15T05:58:28;4.50;99.90
8643;DHT22;4359;49.358;11.256;2023-04-15T06:00:53;4.60;99.90
8643;DHT22;4359;49.358;11.256;2023-04-15T06:03:19;4.70;99.90
8643;DHT22;4359;49.358;11.256;2023-04-15T06:05:45;4.80;99.90
8643;DHT22;4359;49.358;11.256;2023-04-15T06:08:11;4.90;99.90
8643;DHT22;4359;49.358;11.256;2023-04-15T06:10:37;5.10;99.90
8643;DHT22;4359;49.358;11.256;2023-04-15T06:13:03;5.30;99.90
8643;DHT22;4359;49.358;11.256;2023-04-15T06:15:29;5.50;99.90
8643;DHT22;4359;49.358;11.256;2023-04-15T06:17:54;5.70;99.90
8643;DHT22;4359;49.358;11.256;2023-04-15T06:20:20;5.80;99.90
8643;DHT22;4359;49.358;11.256;2023-04-15T06:22:46;5.80;99.90
8643;DHT22;4359;49.358;11.256;2023-04-15T06:25:11;6.00;99.90
8643;DHT22;4359;49.358;11.256;2023-04-15T06:27:37;5.90;99.90
8643;DHT22;4359;49.358;11.256;2023-04-15T06:30:03;5.90;99.90
8643;DHT22;4359;49.358;11.256;2023-04-15T06:32:29;6.00;99.90
8643;DHT22;4359;49.358;11.256;2023-04-15T06:34:55;5.90;99.90
8643;DHT22;4359;49.358;11.256;2023-04-15T06:37:20;6.00;99.90
8643;DHT22;4359;49.358;11.256;2023-04-15T06:39:46;6.00;99.90
8643;DHT22;4359;49.358;11.256;2023-04-15T06:42:12;6.10;99.90
8643;DHT22;4359;49.358;11.256;2023-04-15T06:44:38;6.10;99.90
8643;DHT22;4359;49.358;11.256;2023-04-15T06:47:04;6.20;99.90
8643;DHT22;4359;49.358;11.256;2023-04-15T06:49:29;6.40;99.90
8643;DHT22;4359;49.358;11.256;2023-04-15T06:51:55;6.50;99.90
8643;DHT22;4359;49.358;11.256;2023-04-15T06:54:21;6.50;99.90
8643;DHT22;4359;49.358;11.256;2023-04-15T06:56:47;6.50;99.90
8643;DHT22;4359;49.358;11.256;2023-04-15T06:59:12;6.70;99.90
8643;DHT22;4359;49.358;11.256;2023-04-15T07:01:40;6.70;99.90
8643;DHT22;4359;49.358;11.256;2023-04-15T07:04:06;6.70;99.90
8643;DHT22;4359;49.358;11.256;2023-04-15T07:06:32;6.70;99.90
8643;DHT22;4359;49.358;11.256;2023-04-15T07:08:58;6.60;99.90
8643;DHT22;4359;49.358;11.256;2023-04-15T07:11:26;6.70;99.90
8643;DHT22;4359;49.358;11.256;2023-04-15T07:13:52;6.60;99.90
8643;DHT22;4359;49.358;11.256;2023-04-15T07:16:17;6.70;99.90
8643;DHT22;4359;49.358;11.256;2023-04-15T07:18:43;6.70;99.90
8643;DHT22;4359;49.358;11.256;2023-04-15T07:21:09;6.80;99.90
8643;DHT22;4359;49.358;11.256;2023-04-15T07:23:35;6.80;99.90
8643;DHT22;4359;49.358;11.256;2023-04-15T07:26:01;7.00;99.90
8643;DHT22;4359;49.358;11.256;2023-04-15T07:28:27;7.20;99.90
8643;DHT22;4359;49.358;11.256;2023-04-15T07:30:52;7.40;99.90
8643;DHT22;4359;49.358;11.256;2023-04-15T07:33:18;7.50;99.90
8643;DHT22;4359;49.358;11.256;2023-04-15T07:35:44;7.40;99.90
8643;DHT22;4359;49.358;11.256;2023-04-15T07:38:09;7.40;99.90
8643;DHT22;4359;49.358;11.256;2023-04-15T07:40:38;7.70;99.90
8643;DHT22;4359;49.358;11.256;2023-04-15T07:43:04;7.80;99.90
8643;DHT22;4359;49.358;11.256;2023-04-15T07:45:30;7.70;99.90
8643;DHT22;4359;49.358;11.256;2023-04-15T07:47:56;7.70;99.90
8643;DHT22;4359;49.358;11.256;2023-04-15T07:50:22;7.70;99.90
8643;DHT22;4359;49.358;11.256;2023-04-15T07:52:49;7.80;99.90
8643;DHT22;4359;49.358;11.256;2023-04-15T07:55:16;7.70;99.90
8643;DHT22;4359;49.358;11.256;2023-04-15T07:57:44;7.70;99.90
8643;DHT22;4359;49.358;11.256;2023-04-15T08:00:12;7.60;99.90
8643;DHT22;4359;49.358;11.256;2023-04-15T08:02:38;7.40;99.90
8643;DHT22;4359;49.358;11.256;2023-04-15T08:05:03;7.30;99.90
8643;DHT22;4359;49.358;11.256;2023-04-15T08:07:29;7.20;99.90
8643;DHT22;4359;49.358;11.256;2023-04-15T08:09:55;7.20;99.90
8643;DHT22;4359;49.358;11.256;2023-04-15T08:12:21;7.10;99.90
8643;DHT22;4359;49.358;11.256;2023-04-15T08:14:47;7.10;99.90
8643;DHT22;4359;49.358;11.256;2023-04-15T08:17:12;7.20;99.90
8643;DHT22;4359;49.358;11.256;2023-04-15T08:19:39;7.30;99.90
8643;DHT22;4359;49.358;11.256;2023-04-15T08:22:05;7.40;99.90
8643;DHT22;4359;49.358;11.256;2023-04-15T08:24:30;7.40;99.90
8643;DHT22;4359;49.358;11.256;2023-04-15T08:26:56;7.50;99.90
8643;DHT22;4359;49.358;11.256;2023-04-15T08:29:22;7.50;99.90
8643;DHT22;4359;49.358;11.256;2023-04-15T08:31:48;7.50;99.90
8643;DHT22;4359;49.358;11.256;2023-04-15T08:34:13;7.40;99.90
8643;DHT22;4359;49.358;11.256;2023-04-15T08:36:40;7.30;99.90
8643;DHT22;4359;49.358;11.256;2023-04-15T08:39:06;7.20;99.90
8643;DHT22;4359;49.358;11.256;2023-04-15T08:41:39;7.10;99.90
8643;DHT22;4359;49.358;11.256;2023-04-15T08:44:06;7.00;99.90
8643;DHT22;4359;49.358;11.256;2023-04-15T08:46:31;6.90;99.90
8643;DHT22;4359;49.358;11.256;2023-04-15T08:49:04;6.80;99.90
8643;DHT22;4359;49.358;11.256;2023-04-15T08:51:31;6.90;99.90
8643;DHT22;4359;49.358;11.256;2023-04-15T08:53:57;6.90;99.90
8643;DHT22;4359;49.358;11.256;2023-04-15T08:56:24;6.90;99.90
8643;DHT22;4359;49.358;11.256;2023-04-15T08:58:53;6.80;99.90
8643;DHT22;4359;49.358;11.256;2023-04-15T09:01:18;6.90;99.90
8643;DHT22;4359;49.358;11.256;2023-04-15T09:03:45;6.90;99.90
8643;DHT22;4359;49.358;11.256;2023-04-15T09:06:13;7.00;99.90
8643;DHT22;4359;49.358;11.256;2023-04-15T09:08:40;7.00;99.90
8643;DHT22;4359;49.358;11.256;2023-04-15T09:11:05;7.00;99.90
8643;DHT22;4359;49.358;11.256;2023-04-15T09:13:31;7.10;99.90
8643;DHT22;4359;49.358;11.256;2023-04-15T09:15:57;7.10;99.90
8643;DHT22;4359;49.358;11.256;2023-04-15T09:18:34;7.30;99.90
8643;DHT22;4359;49.358;11.256;2023-04-15T09:21:10;7.20;99.90
8643;DHT22;4359;49.358;11.256;2023-04-15T09:23:38;7.20;99.90
8643;DHT22;4359;49.358;11.256;2023-04-15T09:26:04;7.10;99.90
8643;DHT22;4359;49.358;11.256;2023-04-15T09:28:30;7.10;99.90
8643;DHT22;4359;49.358;11.256;2023-04-15T09:31:00;7.00;99.90
8643;DHT22;4359;49.358;11.256;2023-04-15T09:33:28;7.00;99.90
8643;DHT22;4359;49.358;11.256;2023-04-15T09:36:04;7.10;99.90
8643;DHT22;4359;49.358;11.256;2023-04-15T09:38:31;7.10;99.90
8643;DHT22;4359;49.358;11.256;2023-04-15T09:40:57;7.10;99.90
8643;DHT22;4359;49.358;11.256;2023-04-15T09:43:37;7.20;99.90
8643;DHT22;4359;49.358;11.256;2023-04-15T09:46:06;7.10;99.90
8643;DHT22;4359;49.358;11.256;2023-04-15T09:48:31;7.10;99.90
8643;DHT22;4359;49.358;11.256;2023-04-15T09:50:58;7.10;99.90
8643;DHT22;4359;49.358;11.256;2023-04-15T09:53:25;7.30;99.90
8643;DHT22;4359;49.358;11.256;2023-04-15T09:55:55;7.40;99.90
8643;DHT22;4359;49.358;11.256;2023-04-15T09:58:23;7.60;99.90
8643;DHT22;4359;49.358;11.256;2023-04-15T10:00:50;7.80;99.90
8643;DHT22;4359;49.358;11.256;2023-04-15T10:03:24;7.60;99.90
8643;DHT22;4359;49.358;11.256;2023-04-15T10:05:51;7.50;99.90
8643;DHT22;4359;49.358;11.256;2023-04-15T10:08:20;7.30;99.90
8643;DHT22;4359;49.358;11.256;2023-04-15T10:10:47;7.20;99.90
8643;DHT22;4359;49.358;11.256;2023-04-15T10:13:16;7.10;99.90
8643;DHT22;4359;49.358;11.256;2023-04-15T10:15:50;7.00;99.90
8643;DHT22;4359;49.358;11.256;2023-04-15T10:18:21;7.00;99.90
8643;DHT22;4359;49.358;11.256;2023-04-15T10:20:48;7.30;99.90
8643;DHT22;4359;49.358;11.256;2023-04-15T10:23:14;7.30;99.90
8643;DHT22;4359;49.358;11.256;2023-04-15T10:25:41;7.50;99.90
8643;DHT22;4359;49.358;11.256;2023-04-15T10:28:07;7.60;99.90
8643;DHT22;4359;49.358;11.256;2023-04-15T10:30:35;7.60;99.90
8643;DHT22;4359;49.358;11.256;2023-04-15T10:33:03;7.40;99.90
8643;DHT22;4359;49.358;11.256;2023-04-15T10:35:31;7.10;99.90
8643;DHT22;4359;49.358;11.256;2023-04-15T10:37:57;7.00;99.90
8643;DHT22;4359;49.358;11.256;2023-04-15T10:40:31;6.90;99.90
8643;DHT22;4359;49.358;11.256;2023-04-15T10:42:58;6.80;99.90
8643;DHT22;4359;49.358;11.256;2023-04-15T10:47:59;6.50;99.90
8643;DHT22;4359;49.358;11.256;2023-04-15T10:50:26;6.50;99.90
8643;DHT22;4359;49.358;11.256;2023-04-15T10:52:55;6.40;99.90
8643;DHT22;4359;49.358;11.256;2023-04-15T10:55:23;6.40;99.90
8643;DHT22;4359;49.358;11.256;2023-04-15T10:57:53;6.40;99.90
8643;DHT22;4359;49.358;11.256;2023-04-15T11:00:24;6.50;99.90
8643;DHT22;4359;49.358;11.256;2023-04-15T11:05:20;6.70;99.90
8643;DHT22;4359;49.358;11.256;2023-04-15T11:12:42;6.90;99.90
8643;DHT22;4359;49.358;11.256;2023-04-15T11:15:31;7.10;99.90
8643;DHT22;4359;49.358;11.256;2023-04-15T11:18:09;7.20;99.90
8643;DHT22;4359;49.358;11.256;2023-04-15T11:20:36;7.40;99.90
8643;DHT22;4359;49.358;11.256;2023-04-15T11:23:02;7.60;99.90
8643;DHT22;4359;49.358;11.256;2023-04-15T11:25:30;8.00;99.90
8643;DHT22;4359;49.358;11.256;2023-04-15T11:27:58;8.10;99.90
8643;DHT22;4359;49.358;11.256;2023-04-15T11:30:27;8.30;99.90
8643;DHT22;4359;49.358;11.256;2023-04-15T11:33:04;8.30;99.90
8643;DHT22;4359;49.358;11.256;2023-04-15T11:35:30;8.40;99.90
8643;DHT22;4359;49.358;11.256;2023-04-15T11:37:57;8.20;99.90
8643;DHT22;4359;49.358;11.256;2023-04-15T11:40:29;8.20;99.90
8643;DHT22;4359;49.358;11.256;2023-04-15T11:45:34;7.90;99.90
8643;DHT22;4359;49.358;11.256;2023-04-15T11:48:10;7.70;99.90
8643;DHT22;4359;49.358;11.256;2023-04-15T11:50:36;7.70;99.90
8643;DHT22;4359;49.358;11.256;2023-04-15T11:53:04;7.50;99.90
8643;DHT22;4359;49.358;11.256;2023-04-15T11:55:32;7.70;99.90
8643;DHT22;4359;49.358;11.256;2023-04-15T11:58:14;7.80;99.90
8643;DHT22;4359;49.358;11.256;2023-04-15T12:00:50;7.90;99.90
8643;DHT22;4359;49.358;11.256;2023-04-15T12:14:12;8.70;99.90
8643;DHT22;4359;49.358;11.256;2023-04-15T12:16:45;8.80;99.90
8643;DHT22;4359;49.358;11.256;2023-04-15T12:19:14;8.70;99.90
8643;DHT22;4359;49.358;11.256;2023-04-15T12:21:43;8.30;99.90
8643;DHT22;4359;49.358;11.256;2023-04-15T12:24:10;8.20;99.90
8643;DHT22;4359;49.358;11.256;2023-04-15T12:26:52;8.10;99.90
8643;DHT22;4359;49.358;11.256;2023-04-15T12:29:19;7.90;99.90
8643;DHT22;4359;49.358;11.256;2023-04-15T12:31:52;7.80;99.90
8643;DHT22;4359;49.358;11.256;2023-04-15T12:34:26;7.60;99.90
8643;DHT22;4359;49.358;11.256;2023-04-15T12:36:52;7.70;99.90
8643;DHT22;4359;49.358;11.256;2023-04-15T12:39:21;7.70;99.90
8643;DHT22;4359;49.358;11.256;2023-04-15T12:41:48;7.80;99.90
8643;DHT22;4359;49.358;11.256;2023-04-15T12:44:13;7.90;99.90
8643;DHT22;4359;49.358;11.256;2023-04-15T12:46:39;8.00;99.90
8643;DHT22;4359;49.358;11.256;2023-04-15T12:49:05;8.00;99.90
8643;DHT22;4359;49.358;11.256;2023-04-15T12:51:31;8.10;99.90
8643;DHT22;4359;49.358;11.256;2023-04-15T12:53:57;8.20;99.90
8643;DHT22;4359;49.358;11.256;2023-04-15T12:56:23;8.20;99.90
8643;DHT22;4359;49.358;11.256;2023-04-15T12:58:48;8.30;99.90
8643;DHT22;4359;49.358;11.256;2023-04-15T13:01:14;8.40;99.90
8643;DHT22;4359;49.358;11.256;2023-04-15T13:03:40;8.40;99.90
8643;DHT22;4359;49.358;11.256;2023-04-15T13:06:05;8.30;99.90
8643;DHT22;4359;49.358;11.256;2023-04-15T13:08:31;8.20;99.90
8643;DHT22;4359;49.358;11.256;2023-04-15T13:10:57;8.10;99.90
8643;DHT22;4359;49.358;11.256;2023-04-15T13:13:22;7.90;99.90
8643;DHT22;4359;49.358;11.256;2023-04-15T13:15:48;7.80;99.90
8643;DHT22;4359;49.358;11.256;2023-04-15T13:18:14;7.80;99.90
8643;DHT22;4359;49.358;11.256;2023-04-15T13:20:40;7.90;99.90
8643;DHT22;4359;49.358;11.256;2023-04-15T13:23:06;7.90;99.90
8643;DHT22;4359;49.358;11.256;2023-04-15T13:25:32;8.10;99.90
8643;DHT22;4359;49.358;11.256;2023-04-15T13:27:57;8.30;99.90
8643;DHT22;4359;49.358;11.256;2023-04-15T13:30:23;8.70;99.90
8643;DHT22;4359;49.358;11.256;2023-04-15T13:32:49;8.70;99.90
8643;DHT22;4359;49.358;11.256;2023-04-15T13:35:15;8.90;99.90
8643;DHT22;4359;49.358;11.256;2023-04-15T13:37:41;9.00;99.90
8643;DHT22;4359;49.358;11.256;2023-04-15T13:40:07;9.00;99.90
8643;DHT22;4359;49.358;11.256;2023-04-15T13:42:33;8.90;99.90
8643;DHT22;4359;49.358;11.256;2023-04-15T13:44:58;8.70;99.90
8643;DHT22;4359;49.358;11.256;2023-04-15T13:47:24;8.60;99.90
8643;DHT22;4359;49.358;11.256;2023-04-15T13:49:50;8.30;99.90
8643;DHT22;4359;49.358;11.256;2023-04-15T13:52:17;8.20;99.90
8643;DHT22;4359;49.358;11.256;2023-04-15T13:54:42;8.20;99.90
8643;DHT22;4359;49.358;11.256;2023-04-15T13:57:08;8.20;99.90
8643;DHT22;4359;49.358;11.256;2023-04-15T13:59:34;8.50;99.90
8643;DHT22;4359;49.358;11.256;2023-04-15T14:02:00;8.60;99.90
8643;DHT22;4359;49.358;11.256;2023-04-15T14:04:25;8.80;99.90
8643;DHT22;4359;49.358;11.256;2023-04-15T14:06:51;8.80;99.90
8643;DHT22;4359;49.358;11.256;2023-04-15T14:09:17;8.70;99.90
8643;DHT22;4359;49.358;11.256;2023-04-15T14:11:42;8.60;99.90
8643;DHT22;4359;49.358;11.256;2023-04-15T14:14:08;8.50;99.90
8643;DHT22;4359;49.358;11.256;2023-04-15T14:16:34;8.40;99.90
8643;DHT22;4359;49.358;11.256;2023-04-15T14:19:01;8.20;99.90
8643;DHT22;4359;49.358;11.256;2023-04-15T14:21:27;8.10;99.90
8643;DHT22;4359;49.358;11.256;2023-04-15T14:23:53;7.90;99.90
8643;DHT22;4359;49.358;11.256;2023-04-15T14:26:19;7.80;99.90
8643;DHT22;4359;49.358;11.256;2023-04-15T14:28:45;7.80;99.90
8643;DHT22;4359;49.358;11.256;2023-04-15T14:31:10;7.80;99.90
8643;DHT22;4359;49.358;11.256;2023-04-15T14:33:36;7.70;99.90
8643;DHT22;4359;49.358;11.256;2023-04-15T14:36:02;7.70;99.90
8643;DHT22;4359;49.358;11.256;2023-04-15T14:38:27;7.70;99.90
8643;DHT22;4359;49.358;11.256;2023-04-15T14:40:53;7.70;99.90
8643;DHT22;4359;49.358;11.256;2023-04-15T14:43:20;7.80;99.90
8643;DHT22;4359;49.358;11.256;2023-04-15T14:45:46;7.80;99.90
8643;DHT22;4359;49.358;11.256;2023-04-15T14:48:12;7.90;99.90
8643;DHT22;4359;49.358;11.256;2023-04-15T14:50:37;7.80;99.90
8643;DHT22;4359;49.358;11.256;2023-04-15T14:53:03;7.80;99.90
8643;DHT22;4359;49.358;11.256;2023-04-15T14:55:29;7.80;99.90
8643;DHT22;4359;49.358;11.256;2023-04-15T14:57:55;7.80;99.90
8643;DHT22;4359;49.358;11.256;2023-04-15T15:00:20;7.60;99.90
8643;DHT22;4359;49.358;11.256;2023-04-15T15:02:46;7.50;99.90
8643;DHT22;4359;49.358;11.256;2023-04-15T15:05:12;7.50;99.90
8643;DHT22;4359;49.358;11.256;2023-04-15T15:07:38;7.50;99.90
8643;DHT22;4359;49.358;11.256;2023-04-15T15:10:05;7.40;99.90
8643;DHT22;4359;49.358;11.256;2023-04-15T15:12:31;7.40;99.90
8643;DHT22;4359;49.358;11.256;2023-04-15T15:14:57;7.40;99.90
8643;DHT22;4359;49.358;11.256;2023-04-15T15:17:23;7.40;99.90
8643;DHT22;4359;49.358;11.256;2023-04-15T15:19:48;7.40;99.90
8643;DHT22;4359;49.358;11.256;2023-04-15T15:22:14;7.40;99.90
8643;DHT22;4359;49.358;11.256;2023-04-15T15:24:40;7.40;99.90
8643;DHT22;4359;49.358;11.256;2023-04-15T15:27:06;7.40;99.90
8643;DHT22;4359;49.358;11.256;2023-04-15T15:29:31;7.40;99.90
8643;DHT22;4359;49.358;11.256;2023-04-15T15:31:57;7.50;99.90
8643;DHT22;4359;49.358;11.256;2023-04-15T15:34:22;7.50;99.90
8643;DHT22;4359;49.358;11.256;2023-04-15T15:36:48;7.40;99.90
8643;DHT22;4359;49.358;11.256;2023-04-15T15:39:15;7.40;99.90
8643;DHT22;4359;49.358;11.256;2023-04-15T15:41:40;7.40;99.90
8643;DHT22;4359;49.358;11.256;2023-04-15T15:44:06;7.50;99.90
8643;DHT22;4359;49.358;11.256;2023-04-15T15:46:31;7.50;99.90
8643;DHT22;4359;49.358;11.256;2023-04-15T15:48:57;7.60;99.90
8643;DHT22;4359;49.358;11.256;2023-04-15T15:51:23;7.50;99.90
8643;DHT22;4359;49.358;11.256;2023-04-15T15:53:48;7.50;99.90
8643;DHT22;4359;49.358;11.256;2023-04-15T15:56:14;7.50;99.90
8643;DHT22;4359;49.358;11.256;2023-04-15T15:58:41;7.40;99.90
8643;DHT22;4359;49.358;11.256;2023-04-15T16:01:09;7.40;99.90
8643;DHT22;4359;49.358;11.256;2023-04-15T16:03:35;7.40;99.90
8643;DHT22;4359;49.358;11.256;2023-04-15T16:06:01;7.40;99.90
8643;DHT22;4359;49.358;11.256;2023-04-15T16:08:26;7.40;99.90
8643;DHT22;4359;49.358;11.256;2023-04-15T16:10:53;7.40;99.90
8643;DHT22;4359;49.358;11.256;2023-04-15T16:13:18;7.40;99.90
8643;DHT22;4359;49.358;11.256;2023-04-15T16:15:44;7.30;99.90
8643;DHT22;4359;49.358;11.256;2023-04-15T16:18:10;7.30;99.90
8643;DHT22;4359;49.358;11.256;2023-04-15T16:20:37;7.20;99.90
8643;DHT22;4359;49.358;11.256;2023-04-15T16:23:11;7.20;99.90